sensor_id;sensor_type;location;lat;lon;timestamp;pressure;altitude;pressure_sealevel;temperature
19666;BMP180;9980;51.020;7.772;2022-11-12T00:01:12;99064.00;;;6.00
19666;BMP180;9980;51.020;7.772;2022-11-12T00:03:57;99074.00;;;5.90
19666;BMP180;9980;51.020;7.772;2022-11-12T00:06:41;99062.00;;;5.90
19666;BMP180;9980;51.020;7.772;2022-11-12T00:09:26;99074.00;;;5.90
19666;BMP180;9980;51.020;7.772;2022-11-12T00:12:10;99067.00;;;5.90
19666;BMP180;9980;51.020;7.772;2022-11-12T00:14:56;99086.00;;;5.90
19666;BMP180;9980;51.020;7.772;2022-11-12T00:17:40;99093.00;;;5.80
19666;BMP180;9980;51.020;7.772;2022-11-12T00:20:25;99092.00;;;5.80
19666;BMP180;9980;51.020;7.772;2022-11-12T00:23:10;99091.00;;;5.80
19666;BMP180;9980;51.020;7.772;2022-11-12T00:26:02;99085.00;;;5.70
19666;BMP180;9980;51.020;7.772;2022-11-12T00:28:47;99082.00;;;5.70
19666;BMP180;9980;51.020;7.772;2022-11-12T00:31:31;99090.00;;;5.70
19666;BMP180;9980;51.020;7.772;2022-11-12T00:34:18;99090.00;;;5.70
19666;BMP180;9980;51.020;7.772;2022-11-12T00:37:03;99084.00;;;5.70
19666;BMP180;9980;51.020;7.772;2022-11-12T00:39:48;99087.00;;;5.60
19666;BMP180;9980;51.020;7.772;2022-11-12T00:42:33;99078.00;;;5.60
19666;BMP180;9980;51.020;7.772;2022-11-12T00:45:19;99082.00;;;5.60
19666;BMP180;9980;51.020;7.772;2022-11-12T00:48:04;99090.00;;;5.60
19666;BMP180;9980;51.020;7.772;2022-11-12T00:50:49;99085.00;;;5.60
19666;BMP180;9980;51.020;7.772;2022-11-12T00:53:34;99094.00;;;5.50
19666;BMP180;9980;51.020;7.772;2022-11-12T00:56:19;99113.00;;;5.50
19666;BMP180;9980;51.020;7.772;2022-11-12T00:59:04;99099.00;;;5.50
19666;BMP180;9980;51.020;7.772;2022-11-12T01:01:48;99102.00;;;5.50
19666;BMP180;9980;51.020;7.772;2022-11-12T01:04:33;99098.00;;;5.50
19666;BMP180;9980;51.020;7.772;2022-11-12T01:07:18;99104.00;;;5.40
19666;BMP180;9980;51.020;7.772;2022-11-12T01:10:04;99095.00;;;5.40
19666;BMP180;9980;51.020;7.772;2022-11-12T01:12:49;99096.00;;;5.40
19666;BMP180;9980;51.020;7.772;2022-11-12T01:15:39;99114.00;;;5.40
19666;BMP180;9980;51.020;7.772;2022-11-12T01:18:24;99099.00;;;5.40
19666;BMP180;9980;51.020;7.772;2022-11-12T01:21:09;99118.00;;;5.40
19666;BMP180;9980;51.020;7.772;2022-11-12T01:23:57;99113.00;;;5.40
19666;BMP180;9980;51.020;7.772;2022-11-12T01:26:42;99088.00;;;5.30
19666;BMP180;9980;51.020;7.772;2022-11-12T01:29:26;99106.00;;;5.30
19666;BMP180;9980;51.020;7.772;2022-11-12T01:32:11;99103.00;;;5.30
19666;BMP180;9980;51.020;7.772;2022-11-12T01:34:55;99099.00;;;5.30
19666;BMP180;9980;51.020;7.772;2022-11-12T01:37:40;99098.00;;;5.30
19666;BMP180;9980;51.020;7.772;2022-11-12T01:40:25;99092.00;;;5.20
19666;BMP180;9980;51.020;7.772;2022-11-12T01:43:13;99091.00;;;5.20
19666;BMP180;9980;51.020;7.772;2022-11-12T01:46:02;99093.00;;;5.20
19666;BMP180;9980;51.020;7.772;2022-11-12T01:48:54;99101.00;;;5.20
19666;BMP180;9980;51.020;7.772;2022-11-12T01:51:48;99087.00;;;5.20
19666;BMP180;9980;51.020;7.772;2022-11-12T01:54:35;99094.00;;;5.10
19666;BMP180;9980;51.020;7.772;2022-11-12T01:57:28;99104.00;;;5.10
19666;BMP180;9980;51.020;7.772;2022-11-12T02:00:19;99102.00;;;5.10
19666;BMP180;9980;51.020;7.772;2022-11-12T02:03:09;99092.00;;;5.10
19666;BMP180;9980;51.020;7.772;2022-11-12T02:06:05;99107.00;;;5.10
19666;BMP180;9980;51.020;7.772;2022-11-12T02:08:52;99105.00;;;5.10
19666;BMP180;9980;51.020;7.772;2022-11-12T02:11:37;99098.00;;;5.00
19666;BMP180;9980;51.020;7.772;2022-11-12T02:14:21;99112.00;;;5.00
19666;BMP180;9980;51.020;7.772;2022-11-12T02:17:06;99082.00;;;5.00
19666;BMP180;9980;51.020;7.772;2022-11-12T02:19:51;99092.00;;;5.00
19666;BMP180;9980;51.020;7.772;2022-11-12T02:22:36;99112.00;;;5.00
19666;BMP180;9980;51.020;7.772;2022-11-12T02:25:24;99113.00;;;4.90
19666;BMP180;9980;51.020;7.772;2022-11-12T02:28:10;99107.00;;;4.90
19666;BMP180;9980;51.020;7.772;2022-11-12T02:30:54;99121.00;;;4.90
19666;BMP180;9980;51.020;7.772;2022-11-12T02:33:39;99094.00;;;4.90
19666;BMP180;9980;51.020;7.772;2022-11-12T02:36:25;99105.00;;;4.90
19666;BMP180;9980;51.020;7.772;2022-11-12T02:39:10;99107.00;;;4.90
19666;BMP180;9980;51.020;7.772;2022-11-12T02:41:55;99103.00;;;4.90
19666;BMP180;9980;51.020;7.772;2022-11-12T02:44:40;99092.00;;;4.80
19666;BMP180;9980;51.020;7.772;2022-11-12T02:47:24;99109.00;;;4.80
19666;BMP180;9980;51.020;7.772;2022-11-12T02:50:10;99108.00;;;4.80
19666;BMP180;9980;51.020;7.772;2022-11-12T02:52:55;99108.00;;;4.80
19666;BMP180;9980;51.020;7.772;2022-11-12T02:55:41;99110.00;;;4.70
19666;BMP180;9980;51.020;7.772;2022-11-12T02:58:28;99112.00;;;4.70
19666;BMP180;9980;51.020;7.772;2022-11-12T03:01:13;99100.00;;;4.70
19666;BMP180;9980;51.020;7.772;2022-11-12T03:03:58;99112.00;;;4.70
19666;BMP180;9980;51.020;7.772;2022-11-12T03:06:43;99105.00;;;4.70
19666;BMP180;9980;51.020;7.772;2022-11-12T03:09:28;99101.00;;;4.70
19666;BMP180;9980;51.020;7.772;2022-11-12T03:12:13;99102.00;;;4.60
19666;BMP180;9980;51.020;7.772;2022-11-12T03:14:57;99103.00;;;4.60
19666;BMP180;9980;51.020;7.772;2022-11-12T03:17:43;99079.00;;;4.60
19666;BMP180;9980;51.020;7.772;2022-11-12T03:20:28;99087.00;;;4.60
19666;BMP180;9980;51.020;7.772;2022-11-12T03:23:13;99096.00;;;4.60
19666;BMP180;9980;51.020;7.772;2022-11-12T03:26:01;99075.00;;;4.50
19666;BMP180;9980;51.020;7.772;2022-11-12T03:28:46;99073.00;;;4.50
19666;BMP180;9980;51.020;7.772;2022-11-12T03:31:30;99083.00;;;4.50
19666;BMP180;9980;51.020;7.772;2022-11-12T03:34:15;99082.00;;;4.50
19666;BMP180;9980;51.020;7.772;2022-11-12T03:37:00;99075.00;;;4.50
19666;BMP180;9980;51.020;7.772;2022-11-12T03:39:47;99070.00;;;4.50
19666;BMP180;9980;51.020;7.772;2022-11-12T03:42:31;99054.00;;;4.40
19666;BMP180;9980;51.020;7.772;2022-11-12T03:45:17;99060.00;;;4.40
19666;BMP180;9980;51.020;7.772;2022-11-12T03:48:03;99056.00;;;4.40
19666;BMP180;9980;51.020;7.772;2022-11-12T03:50:48;99060.00;;;4.40
19666;BMP180;9980;51.020;7.772;2022-11-12T03:53:32;99057.00;;;4.40
19666;BMP180;9980;51.020;7.772;2022-11-12T03:56:17;99059.00;;;4.30
19666;BMP180;9980;51.020;7.772;2022-11-12T03:59:03;99065.00;;;4.30
19666;BMP180;9980;51.020;7.772;2022-11-12T04:01:48;99063.00;;;4.30
19666;BMP180;9980;51.020;7.772;2022-11-12T04:04:32;99053.00;;;4.30
19666;BMP180;9980;51.020;7.772;2022-11-12T04:07:35;99050.00;;;4.30
19666;BMP180;9980;51.020;7.772;2022-11-12T04:10:55;99052.00;;;4.30
19666;BMP180;9980;51.020;7.772;2022-11-12T04:13:42;99047.00;;;4.20
19666;BMP180;9980;51.020;7.772;2022-11-12T04:16:29;99034.00;;;4.20
19666;BMP180;9980;51.020;7.772;2022-11-12T04:19:49;99054.00;;;4.20
19666;BMP180;9980;51.020;7.772;2022-11-12T04:22:52;99048.00;;;4.20
19666;BMP180;9980;51.020;7.772;2022-11-12T04:25:38;99056.00;;;4.20
19666;BMP180;9980;51.020;7.772;2022-11-12T04:28:42;99059.00;;;4.20
19666;BMP180;9980;51.020;7.772;2022-11-12T04:31:45;99036.00;;;4.10
19666;BMP180;9980;51.020;7.772;2022-11-12T04:34:30;99028.00;;;4.10
19666;BMP180;9980;51.020;7.772;2022-11-12T04:37:15;99034.00;;;4.10
19666;BMP180;9980;51.020;7.772;2022-11-12T04:40:06;99034.00;;;4.10
19666;BMP180;9980;51.020;7.772;2022-11-12T04:43:14;99029.00;;;4.10
19666;BMP180;9980;51.020;7.772;2022-11-12T04:46:18;99022.00;;;4.10
19666;BMP180;9980;51.020;7.772;2022-11-12T04:49:04;99014.00;;;4.00
19666;BMP180;9980;51.020;7.772;2022-11-12T04:51:48;99020.00;;;4.00
19666;BMP180;9980;51.020;7.772;2022-11-12T04:54:48;99025.00;;;4.00
19666;BMP180;9980;51.020;7.772;2022-11-12T04:57:33;99038.00;;;4.00
19666;BMP180;9980;51.020;7.772;2022-11-12T05:00:18;99015.00;;;4.00
19666;BMP180;9980;51.020;7.772;2022-11-12T05:03:02;99021.00;;;4.00
19666;BMP180;9980;51.020;7.772;2022-11-12T05:05:47;99011.00;;;4.00
19666;BMP180;9980;51.020;7.772;2022-11-12T05:08:32;99020.00;;;4.00
19666;BMP180;9980;51.020;7.772;2022-11-12T05:11:16;99030.00;;;3.90
19666;BMP180;9980;51.020;7.772;2022-11-12T05:14:01;99029.00;;;3.90
19666;BMP180;9980;51.020;7.772;2022-11-12T05:16:46;99013.00;;;3.90
19666;BMP180;9980;51.020;7.772;2022-11-12T05:19:31;99033.00;;;3.90
19666;BMP180;9980;51.020;7.772;2022-11-12T05:22:17;99033.00;;;3.90
19666;BMP180;9980;51.020;7.772;2022-11-12T05:25:22;99030.00;;;3.90
19666;BMP180;9980;51.020;7.772;2022-11-12T05:28:06;99014.00;;;3.80
19666;BMP180;9980;51.020;7.772;2022-11-12T05:30:51;99031.00;;;3.90
19666;BMP180;9980;51.020;7.772;2022-11-12T05:33:36;99030.00;;;3.80
19666;BMP180;9980;51.020;7.772;2022-11-12T05:36:20;99034.00;;;3.80
19666;BMP180;9980;51.020;7.772;2022-11-12T05:39:05;99028.00;;;3.80
19666;BMP180;9980;51.020;7.772;2022-11-12T05:41:50;99028.00;;;3.80
19666;BMP180;9980;51.020;7.772;2022-11-12T05:44:55;99028.00;;;3.80
19666;BMP180;9980;51.020;7.772;2022-11-12T05:47:40;99025.00;;;3.70
19666;BMP180;9980;51.020;7.772;2022-11-12T05:50:24;99025.00;;;3.70
19666;BMP180;9980;51.020;7.772;2022-11-12T05:53:18;99031.00;;;3.70
19666;BMP180;9980;51.020;7.772;2022-11-12T05:56:05;99027.00;;;3.70
19666;BMP180;9980;51.020;7.772;2022-11-12T05:58:50;99032.00;;;3.70
19666;BMP180;9980;51.020;7.772;2022-11-12T06:01:36;99026.00;;;3.70
19666;BMP180;9980;51.020;7.772;2022-11-12T06:04:27;99033.00;;;3.70
19666;BMP180;9980;51.020;7.772;2022-11-12T06:07:12;99031.00;;;3.60
19666;BMP180;9980;51.020;7.772;2022-11-12T06:09:57;99032.00;;;3.70
19666;BMP180;9980;51.020;7.772;2022-11-12T06:12:42;99037.00;;;3.60
19666;BMP180;9980;51.020;7.772;2022-11-12T06:15:26;99020.00;;;3.60
19666;BMP180;9980;51.020;7.772;2022-11-12T06:18:12;99028.00;;;3.60
19666;BMP180;9980;51.020;7.772;2022-11-12T06:21:09;99023.00;;;3.60
19666;BMP180;9980;51.020;7.772;2022-11-12T06:24:04;99041.00;;;3.60
19666;BMP180;9980;51.020;7.772;2022-11-12T06:26:49;99041.00;;;3.60
19666;BMP180;9980;51.020;7.772;2022-11-12T06:29:34;99032.00;;;3.60
19666;BMP180;9980;51.020;7.772;2022-11-12T06:32:18;99047.00;;;3.60
19666;BMP180;9980;51.020;7.772;2022-11-12T06:35:04;99043.00;;;3.50
19666;BMP180;9980;51.020;7.772;2022-11-12T06:37:49;99056.00;;;3.50
19666;BMP180;9980;51.020;7.772;2022-11-12T06:40:34;99056.00;;;3.50
19666;BMP180;9980;51.020;7.772;2022-11-12T06:43:19;99052.00;;;3.50
19666;BMP180;9980;51.020;7.772;2022-11-12T06:46:09;99038.00;;;3.50
19666;BMP180;9980;51.020;7.772;2022-11-12T06:48:54;99058.00;;;3.50
19666;BMP180;9980;51.020;7.772;2022-11-12T06:51:39;99049.00;;;3.50
19666;BMP180;9980;51.020;7.772;2022-11-12T06:54:24;99034.00;;;3.40
19666;BMP180;9980;51.020;7.772;2022-11-12T06:57:10;99034.00;;;3.50
19666;BMP180;9980;51.020;7.772;2022-11-12T06:59:55;99029.00;;;3.40
19666;BMP180;9980;51.020;7.772;2022-11-12T07:02:39;99014.00;;;3.40
19666;BMP180;9980;51.020;7.772;2022-11-12T07:05:24;99035.00;;;3.40
19666;BMP180;9980;51.020;7.772;2022-11-12T07:08:09;99038.00;;;3.40
19666;BMP180;9980;51.020;7.772;2022-11-12T07:10:57;99035.00;;;3.40
19666;BMP180;9980;51.020;7.772;2022-11-12T07:13:43;99042.00;;;3.40
19666;BMP180;9980;51.020;7.772;2022-11-12T07:16:28;99054.00;;;3.40
19666;BMP180;9980;51.020;7.772;2022-11-12T07:19:12;99039.00;;;3.40
19666;BMP180;9980;51.020;7.772;2022-11-12T07:21:57;99053.00;;;3.40
19666;BMP180;9980;51.020;7.772;2022-11-12T07:24:42;99053.00;;;3.40
19666;BMP180;9980;51.020;7.772;2022-11-12T07:27:29;99041.00;;;3.40
19666;BMP180;9980;51.020;7.772;2022-11-12T07:30:14;99055.00;;;3.40
19666;BMP180;9980;51.020;7.772;2022-11-12T07:32:59;99041.00;;;3.40
19666;BMP180;9980;51.020;7.772;2022-11-12T07:35:44;99039.00;;;3.40
19666;BMP180;9980;51.020;7.772;2022-11-12T07:38:32;99044.00;;;3.40
19666;BMP180;9980;51.020;7.772;2022-11-12T07:41:23;99055.00;;;3.40
19666;BMP180;9980;51.020;7.772;2022-11-12T07:44:08;99069.00;;;3.40
19666;BMP180;9980;51.020;7.772;2022-11-12T07:46:53;99049.00;;;3.40
19666;BMP180;9980;51.020;7.772;2022-11-12T07:49:38;99044.00;;;3.40
19666;BMP180;9980;51.020;7.772;2022-11-12T07:52:23;99058.00;;;3.40
19666;BMP180;9980;51.020;7.772;2022-11-12T07:55:08;99069.00;;;3.40
19666;BMP180;9980;51.020;7.772;2022-11-12T07:57:52;99061.00;;;3.40
19666;BMP180;9980;51.020;7.772;2022-11-12T08:00:37;99062.00;;;3.40
19666;BMP180;9980;51.020;7.772;2022-11-12T08:03:22;99070.00;;;3.40
19666;BMP180;9980;51.020;7.772;2022-11-12T08:06:07;99062.00;;;3.40
19666;BMP180;9980;51.020;7.772;2022-11-12T08:08:57;99066.00;;;3.50
19666;BMP180;9980;51.020;7.772;2022-11-12T08:11:43;99081.00;;;3.50
19666;BMP180;9980;51.020;7.772;2022-11-12T08:14:27;99084.00;;;3.50
19666;BMP180;9980;51.020;7.772;2022-11-12T08:17:12;99077.00;;;3.50
19666;BMP180;9980;51.020;7.772;2022-11-12T08:19:56;99071.00;;;3.50
19666;BMP180;9980;51.020;7.772;2022-11-12T08:22:41;99090.00;;;3.60
19666;BMP180;9980;51.020;7.772;2022-11-12T08:25:34;99086.00;;;3.60
19666;BMP180;9980;51.020;7.772;2022-11-12T08:28:18;99077.00;;;3.60
19666;BMP180;9980;51.020;7.772;2022-11-12T08:31:16;99092.00;;;3.70
19666;BMP180;9980;51.020;7.772;2022-11-12T08:34:02;99079.00;;;3.70
19666;BMP180;9980;51.020;7.772;2022-11-12T08:36:55;99075.00;;;3.80
19666;BMP180;9980;51.020;7.772;2022-11-12T08:39:40;99081.00;;;3.90
19666;BMP180;9980;51.020;7.772;2022-11-12T08:42:25;99091.00;;;4.00
19666;BMP180;9980;51.020;7.772;2022-11-12T08:45:09;99097.00;;;4.10
19666;BMP180;9980;51.020;7.772;2022-11-12T08:48:03;99083.00;;;4.10
19666;BMP180;9980;51.020;7.772;2022-11-12T08:50:48;99089.00;;;4.20
19666;BMP180;9980;51.020;7.772;2022-11-12T08:53:33;99093.00;;;4.40
19666;BMP180;9980;51.020;7.772;2022-11-12T08:56:18;99111.00;;;4.50
19666;BMP180;9980;51.020;7.772;2022-11-12T08:59:02;99105.00;;;4.50
19666;BMP180;9980;51.020;7.772;2022-11-12T09:01:51;99111.00;;;4.70
19666;BMP180;9980;51.020;7.772;2022-11-12T09:04:36;99109.00;;;4.80
19666;BMP180;9980;51.020;7.772;2022-11-12T09:07:21;99089.00;;;4.90
19666;BMP180;9980;51.020;7.772;2022-11-12T09:10:27;99100.00;;;5.00
19666;BMP180;9980;51.020;7.772;2022-11-12T09:13:13;99085.00;;;5.10
19666;BMP180;9980;51.020;7.772;2022-11-12T09:16:04;99099.00;;;5.20
19666;BMP180;9980;51.020;7.772;2022-11-12T09:18:49;99079.00;;;5.30
19666;BMP180;9980;51.020;7.772;2022-11-12T09:21:34;99087.00;;;5.40
19666;BMP180;9980;51.020;7.772;2022-11-12T09:24:19;99080.00;;;5.50
19666;BMP180;9980;51.020;7.772;2022-11-12T09:27:03;99083.00;;;5.60
19666;BMP180;9980;51.020;7.772;2022-11-12T09:29:48;99087.00;;;5.70
19666;BMP180;9980;51.020;7.772;2022-11-12T09:32:32;99078.00;;;5.80
19666;BMP180;9980;51.020;7.772;2022-11-12T09:35:17;99079.00;;;5.90
19666;BMP180;9980;51.020;7.772;2022-11-12T09:38:02;99074.00;;;6.10
19666;BMP180;9980;51.020;7.772;2022-11-12T09:43:50;99078.00;;;6.30
19666;BMP180;9980;51.020;7.772;2022-11-12T09:46:56;99081.00;;;6.50
19666;BMP180;9980;51.020;7.772;2022-11-12T09:53:10;99077.00;;;6.80
19666;BMP180;9980;51.020;7.772;2022-11-12T09:55:56;99054.00;;;6.90
19666;BMP180;9980;51.020;7.772;2022-11-12T09:58:40;99053.00;;;7.10
19666;BMP180;9980;51.020;7.772;2022-11-12T10:05:24;99063.00;;;7.50
19666;BMP180;9980;51.020;7.772;2022-11-12T10:15:24;99055.00;;;8.00
19666;BMP180;9980;51.020;7.772;2022-11-12T10:19:04;99048.00;;;8.20
19666;BMP180;9980;51.020;7.772;2022-11-12T10:22:22;99049.00;;;8.40
19666;BMP180;9980;51.020;7.772;2022-11-12T10:25:18;99034.00;;;8.60
19666;BMP180;9980;51.020;7.772;2022-11-12T10:28:32;99051.00;;;8.80
19666;BMP180;9980;51.020;7.772;2022-11-12T10:31:23;99041.00;;;9.00
19666;BMP180;9980;51.020;7.772;2022-11-12T10:34:21;99053.00;;;9.10
19666;BMP180;9980;51.020;7.772;2022-11-12T10:37:21;99028.00;;;9.30
19666;BMP180;9980;51.020;7.772;2022-11-12T10:46:24;99025.00;;;9.90
19666;BMP180;9980;51.020;7.772;2022-11-12T10:51:59;99026.00;;;10.30
19666;BMP180;9980;51.020;7.772;2022-11-12T10:54:44;99028.00;;;10.40
19666;BMP180;9980;51.020;7.772;2022-11-12T10:57:29;99017.00;;;10.60
19666;BMP180;9980;51.020;7.772;2022-11-12T11:00:15;99008.00;;;10.80
19666;BMP180;9980;51.020;7.772;2022-11-12T11:03:34;99013.00;;;11.00
19666;BMP180;9980;51.020;7.772;2022-11-12T11:06:24;99016.00;;;11.20
19666;BMP180;9980;51.020;7.772;2022-11-12T11:11:57;99009.00;;;11.60
19666;BMP180;9980;51.020;7.772;2022-11-12T11:14:42;99005.00;;;11.80
19666;BMP180;9980;51.020;7.772;2022-11-12T11:17:28;99016.00;;;12.00
19666;BMP180;9980;51.020;7.772;2022-11-12T11:20:42;99015.00;;;12.10
19666;BMP180;9980;51.020;7.772;2022-11-12T11:30:10;98999.00;;;12.70
19666;BMP180;9980;51.020;7.772;2022-11-12T11:37:06;98990.00;;;13.10
19666;BMP180;9980;51.020;7.772;2022-11-12T11:40:23;98982.00;;;13.30
19666;BMP180;9980;51.020;7.772;2022-11-12T11:43:56;98975.00;;;13.50
19666;BMP180;9980;51.020;7.772;2022-11-12T11:50:05;98989.00;;;13.80
19666;BMP180;9980;51.020;7.772;2022-11-12T11:53:22;98984.00;;;14.00
19666;BMP180;9980;51.020;7.772;2022-11-12T11:56:33;98984.00;;;14.20
19666;BMP180;9980;51.020;7.772;2022-11-12T12:03:16;98972.00;;;14.50
19666;BMP180;9980;51.020;7.772;2022-11-12T12:09:54;98975.00;;;14.80
19666;BMP180;9980;51.020;7.772;2022-11-12T12:13:11;98968.00;;;15.00
19666;BMP180;9980;51.020;7.772;2022-11-12T12:22:49;98966.00;;;15.50
19666;BMP180;9980;51.020;7.772;2022-11-12T12:25:39;98963.00;;;15.60
19666;BMP180;9980;51.020;7.772;2022-11-12T12:29:03;98961.00;;;15.70
19666;BMP180;9980;51.020;7.772;2022-11-12T12:32:11;98970.00;;;15.70
19666;BMP180;9980;51.020;7.772;2022-11-12T12:35:33;98951.00;;;15.70
19666;BMP180;9980;51.020;7.772;2022-11-12T12:38:47;98937.00;;;15.80
19666;BMP180;9980;51.020;7.772;2022-11-12T12:44:43;98938.00;;;15.80
19666;BMP180;9980;51.020;7.772;2022-11-12T12:47:46;98927.00;;;15.80
19666;BMP180;9980;51.020;7.772;2022-11-12T12:50:35;98948.00;;;15.80
19666;BMP180;9980;51.020;7.772;2022-11-12T12:59:21;98928.00;;;15.90
19666;BMP180;9980;51.020;7.772;2022-11-12T13:02:22;98922.00;;;15.90
19666;BMP180;9980;51.020;7.772;2022-11-12T13:05:34;98926.00;;;15.90
19666;BMP180;9980;51.020;7.772;2022-11-12T13:08:23;98924.00;;;16.00
19666;BMP180;9980;51.020;7.772;2022-11-12T13:14:44;98919.00;;;16.10
19666;BMP180;9980;51.020;7.772;2022-11-12T13:17:45;98915.00;;;16.10
19666;BMP180;9980;51.020;7.772;2022-11-12T13:20:34;98915.00;;;16.20
19666;BMP180;9980;51.020;7.772;2022-11-12T13:23:47;98913.00;;;16.20
19666;BMP180;9980;51.020;7.772;2022-11-12T13:26:55;98919.00;;;16.30
19666;BMP180;9980;51.020;7.772;2022-11-12T13:29:42;98906.00;;;16.30
19666;BMP180;9980;51.020;7.772;2022-11-12T13:32:33;98913.00;;;16.40
19666;BMP180;9980;51.020;7.772;2022-11-12T13:35:24;98914.00;;;16.40
19666;BMP180;9980;51.020;7.772;2022-11-12T13:41:18;98918.00;;;16.50
19666;BMP180;9980;51.020;7.772;2022-11-12T13:44:23;98922.00;;;16.60
19666;BMP180;9980;51.020;7.772;2022-11-12T13:47:20;98914.00;;;16.70
19666;BMP180;9980;51.020;7.772;2022-11-12T13:50:14;98920.00;;;16.70
19666;BMP180;9980;51.020;7.772;2022-11-12T13:53:00;98918.00;;;16.80
19666;BMP180;9980;51.020;7.772;2022-11-12T13:55:50;98922.00;;;16.80
19666;BMP180;9980;51.020;7.772;2022-11-12T13:58:35;98921.00;;;16.90
19666;BMP180;9980;51.020;7.772;2022-11-12T14:01:23;98928.00;;;16.90
19666;BMP180;9980;51.020;7.772;2022-11-12T14:04:18;98932.00;;;17.00
19666;BMP180;9980;51.020;7.772;2022-11-12T14:20:25;98918.00;;;17.00
19666;BMP180;9980;51.020;7.772;2022-11-12T14:23:16;98917.00;;;17.00
19666;BMP180;9980;51.020;7.772;2022-11-12T14:26:11;98916.00;;;17.00
19666;BMP180;9980;51.020;7.772;2022-11-12T14:28:56;98908.00;;;17.00
19666;BMP180;9980;51.020;7.772;2022-11-12T14:31:42;98920.00;;;17.00
19666;BMP180;9980;51.020;7.772;2022-11-12T14:34:33;98900.00;;;16.90
19666;BMP180;9980;51.020;7.772;2022-11-12T14:37:37;98891.00;;;16.90
19666;BMP180;9980;51.020;7.772;2022-11-12T14:40:32;98905.00;;;16.90
19666;BMP180;9980;51.020;7.772;2022-11-12T14:43:48;98897.00;;;16.80
19666;BMP180;9980;51.020;7.772;2022-11-12T14:46:51;98907.00;;;16.70
19666;BMP180;9980;51.020;7.772;2022-11-12T14:49:44;98890.00;;;16.70
19666;BMP180;9980;51.020;7.772;2022-11-12T14:52:36;98891.00;;;16.60
19666;BMP180;9980;51.020;7.772;2022-11-12T14:55:30;98887.00;;;16.60
19666;BMP180;9980;51.020;7.772;2022-11-12T14:58:19;98898.00;;;16.60
19666;BMP180;9980;51.020;7.772;2022-11-12T15:02:01;98905.00;;;16.40
19666;BMP180;9980;51.020;7.772;2022-11-12T15:05:17;98894.00;;;16.40
19666;BMP180;9980;51.020;7.772;2022-11-12T15:08:10;98898.00;;;16.30
19666;BMP180;9980;51.020;7.772;2022-11-12T15:11:12;98905.00;;;16.30
19666;BMP180;9980;51.020;7.772;2022-11-12T15:14:12;98893.00;;;16.20
19666;BMP180;9980;51.020;7.772;2022-11-12T15:17:03;98898.00;;;16.10
19666;BMP180;9980;51.020;7.772;2022-11-12T15:19:49;98893.00;;;16.00
19666;BMP180;9980;51.020;7.772;2022-11-12T15:22:34;98888.00;;;16.00
19666;BMP180;9980;51.020;7.772;2022-11-12T15:25:22;98894.00;;;15.90
19666;BMP180;9980;51.020;7.772;2022-11-12T15:28:22;98890.00;;;15.80
19666;BMP180;9980;51.020;7.772;2022-11-12T15:31:20;98876.00;;;15.70
19666;BMP180;9980;51.020;7.772;2022-11-12T15:37:26;98878.00;;;15.50
19666;BMP180;9980;51.020;7.772;2022-11-12T15:40:19;98874.00;;;15.50
19666;BMP180;9980;51.020;7.772;2022-11-12T15:43:17;98875.00;;;15.40
19666;BMP180;9980;51.020;7.772;2022-11-12T15:46:03;98877.00;;;15.30
19666;BMP180;9980;51.020;7.772;2022-11-12T15:48:47;98868.00;;;15.20
19666;BMP180;9980;51.020;7.772;2022-11-12T15:51:40;98866.00;;;15.10
19666;BMP180;9980;51.020;7.772;2022-11-12T15:54:24;98870.00;;;14.80
19666;BMP180;9980;51.020;7.772;2022-11-12T15:57:20;98876.00;;;14.90
19666;BMP180;9980;51.020;7.772;2022-11-12T16:00:24;98875.00;;;14.80
19666;BMP180;9980;51.020;7.772;2022-11-12T16:03:18;98875.00;;;14.70
19666;BMP180;9980;51.020;7.772;2022-11-12T16:06:04;98883.00;;;14.70
19666;BMP180;9980;51.020;7.772;2022-11-12T16:08:54;98872.00;;;14.60
19666;BMP180;9980;51.020;7.772;2022-11-12T16:11:38;98865.00;;;14.50
19666;BMP180;9980;51.020;7.772;2022-11-12T16:14:23;98867.00;;;14.40
19666;BMP180;9980;51.020;7.772;2022-11-12T16:17:17;98869.00;;;14.30
19666;BMP180;9980;51.020;7.772;2022-11-12T16:20:14;98875.00;;;14.30
19666;BMP180;9980;51.020;7.772;2022-11-12T16:23:00;98871.00;;;14.20
19666;BMP180;9980;51.020;7.772;2022-11-12T16:25:45;98872.00;;;14.10
19666;BMP180;9980;51.020;7.772;2022-11-12T16:28:29;98872.00;;;14.00
19666;BMP180;9980;51.020;7.772;2022-11-12T16:31:14;98871.00;;;13.90
19666;BMP180;9980;51.020;7.772;2022-11-12T16:33:59;98867.00;;;13.90
19666;BMP180;9980;51.020;7.772;2022-11-12T16:36:46;98857.00;;;13.80
19666;BMP180;9980;51.020;7.772;2022-11-12T16:39:30;98869.00;;;13.70
19666;BMP180;9980;51.020;7.772;2022-11-12T16:42:15;98872.00;;;13.60
19666;BMP180;9980;51.020;7.772;2022-11-12T16:45:00;98857.00;;;13.50
19666;BMP180;9980;51.020;7.772;2022-11-12T16:47:52;98870.00;;;13.40
19666;BMP180;9980;51.020;7.772;2022-11-12T16:50:39;98881.00;;;13.40
19666;BMP180;9980;51.020;7.772;2022-11-12T16:53:24;98876.00;;;13.30
19666;BMP180;9980;51.020;7.772;2022-11-12T16:56:20;98871.00;;;13.20
19666;BMP180;9980;51.020;7.772;2022-11-12T16:59:05;98866.00;;;13.20
19666;BMP180;9980;51.020;7.772;2022-11-12T17:01:50;98864.00;;;13.10
19666;BMP180;9980;51.020;7.772;2022-11-12T17:04:34;98876.00;;;13.00
19666;BMP180;9980;51.020;7.772;2022-11-12T17:07:19;98862.00;;;13.00
19666;BMP180;9980;51.020;7.772;2022-11-12T17:10:05;98863.00;;;12.90
19666;BMP180;9980;51.020;7.772;2022-11-12T17:12:53;98874.00;;;12.90
19666;BMP180;9980;51.020;7.772;2022-11-12T17:15:38;98852.00;;;12.80
19666;BMP180;9980;51.020;7.772;2022-11-12T17:18:22;98877.00;;;12.70
19666;BMP180;9980;51.020;7.772;2022-11-12T17:21:17;98874.00;;;12.60
19666;BMP180;9980;51.020;7.772;2022-11-12T17:24:02;98860.00;;;12.60
19666;BMP180;9980;51.020;7.772;2022-11-12T17:26:47;98876.00;;;12.60
19666;BMP180;9980;51.020;7.772;2022-11-12T17:29:32;98869.00;;;12.50
19666;BMP180;9980;51.020;7.772;2022-11-12T17:32:17;98871.00;;;12.40
19666;BMP180;9980;51.020;7.772;2022-11-12T17:35:02;98870.00;;;12.40
19666;BMP180;9980;51.020;7.772;2022-11-12T17:37:47;98872.00;;;12.30
19666;BMP180;9980;51.020;7.772;2022-11-12T17:40:31;98871.00;;;12.30
19666;BMP180;9980;51.020;7.772;2022-11-12T17:43:16;98865.00;;;12.20
19666;BMP180;9980;51.020;7.772;2022-11-12T17:46:03;98863.00;;;12.20
19666;BMP180;9980;51.020;7.772;2022-11-12T17:48:47;98865.00;;;12.10
19666;BMP180;9980;51.020;7.772;2022-11-12T17:51:33;98864.00;;;12.10
19666;BMP180;9980;51.020;7.772;2022-11-12T17:54:19;98864.00;;;12.00
19666;BMP180;9980;51.020;7.772;2022-11-12T17:57:04;98851.00;;;12.00
19666;BMP180;9980;51.020;7.772;2022-11-12T17:59:49;98867.00;;;11.90
19666;BMP180;9980;51.020;7.772;2022-11-12T18:02:34;98860.00;;;11.90
19666;BMP180;9980;51.020;7.772;2022-11-12T18:05:18;98866.00;;;11.80
19666;BMP180;9980;51.020;7.772;2022-11-12T18:08:03;98863.00;;;11.80
19666;BMP180;9980;51.020;7.772;2022-11-12T18:10:48;98862.00;;;11.70